Time;durP1;ratioP1;P1;durP2;ratioP2;P2;SDS_P1;SDS_P2;PMS_P1;PMS_P2;Temp;Humidity;BMP_temperature;BMP_pressure;BME280_temperature;BME280_humidity;BME280_pressure;Samples;Min_cycle;Max_cycle;Signal;HPM_P1;HPM_P2
2021/04/02 00:00:58;;;;;;;13.00;3.45;;;-0.30;99.90;;;;;;4924286;28;20087;-82
2021/04/02 00:03:24;;;;;;;18.58;4.00;;;-0.30;99.90;;;;;;4924416;28;20480;-82
2021/04/02 00:05:54;;;;;;;28.40;4.05;;;-0.30;99.90;;;;;;4921191;28;20134;-81
2021/04/02 00:08:17;;;;;;;51.58;3.17;;;-0.40;99.90;;;;;;4923186;28;20084;-84
2021/04/02 00:10:46;;;;;;;48.75;2.80;;;-0.50;99.90;;;;;;4923463;28;20087;-82
2021/04/02 00:13:09;;;;;;;108.32;4.47;;;-0.60;99.90;;;;;;4920773;28;20089;-82
2021/04/02 00:15:31;;;;;;;16.08;3.72;;;-0.60;99.90;;;;;;4913944;28;20102;-82
2021/04/02 00:17:54;;;;;;;9.10;4.18;;;-0.60;99.90;;;;;;4916576;28;20110;-81
2021/04/02 00:20:19;;;;;;;9.25;3.90;;;-0.50;99.90;;;;;;4919287;28;20099;-80
2021/04/02 00:22:43;;;;;;;12.73;4.00;;;-0.50;99.90;;;;;;4922886;28;20095;-81
2021/04/02 00:25:06;;;;;;;10.90;4.30;;;-0.40;99.90;;;;;;4920830;28;20085;-82
2021/04/02 00:27:29;;;;;;;29.95;4.78;;;-0.50;99.90;;;;;;4921656;28;20085;-82
2021/04/02 00:29:54;;;;;;;48.63;5.03;;;-0.50;99.90;;;;;;4927307;28;20562;-80
2021/04/02 00:32:16;;;;;;;39.08;4.57;;;-0.50;99.90;;;;;;4923677;28;20167;-80
2021/04/02 00:34:39;;;;;;;20.63;4.95;;;-0.50;99.90;;;;;;4924504;28;20095;-83
2021/04/02 00:37:03;;;;;;;55.47;5.38;;;-0.50;99.90;;;;;;4923583;28;20123;-81
2021/04/02 00:39:26;;;;;;;11.47;5.03;;;;;;;;;;4923846;28;20454;-84
2021/04/02 00:41:49;;;;;;;64.57;5.85;;;-0.50;99.90;;;;;;4925435;28;20555;-82
2021/04/02 00:44:11;;;;;;;13.65;5.20;;;-0.50;99.90;;;;;;4925375;28;20089;-82
2021/04/02 00:46:34;;;;;;;19.95;5.72;;;-0.50;99.90;;;;;;4923355;28;20149;-81
2021/04/02 00:48:56;;;;;;;25.00;6.57;;;-0.50;99.90;;;;;;4917001;28;20084;-82
2021/04/02 00:51:23;;;;;;;12.18;5.28;;;-0.60;99.90;;;;;;4923293;28;20195;-82
2021/04/02 00:53:46;;;;;;;17.70;6.35;;;-0.50;99.90;;;;;;4925144;28;20097;-82
2021/04/02 00:56:11;;;;;;;50.55;6.47;;;-0.50;99.90;;;;;;4924863;28;20091;-81
2021/04/02 00:58:35;;;;;;;44.67;5.60;;;-0.60;99.90;;;;;;4923735;28;20079;-80
2021/04/02 01:00:57;;;;;;;85.75;5.72;;;-0.60;99.90;;;;;;4927796;28;20512;-81
2021/04/02 01:03:40;;;;;;;56.72;5.80;;;-0.60;99.90;;;;;;4932477;28;20129;-81
2021/04/02 01:06:07;;;;;;;85.30;6.25;;;-0.60;99.90;;;;;;4927898;28;20089;-81
2021/04/02 01:08:32;;;;;;;17.48;6.10;;;-0.50;99.90;;;;;;4928696;28;20105;-79
2021/04/02 01:10:58;;;;;;;15.90;6.53;;;-0.60;99.90;;;;;;4925905;28;20501;-79
2021/04/02 01:13:25;;;;;;;12.75;5.30;;;-0.40;99.90;;;;;;4920807;28;20554;-79
2021/04/02 01:15:55;;;;;;;19.98;7.28;;;-0.30;99.90;;;;;;4910683;28;23673;-80
2021/04/02 01:18:23;;;;;;;24.00;7.03;;;-0.10;99.90;;;;;;4940765;28;20153;-81
2021/04/02 01:20:50;;;;;;;21.77;6.93;;;-0.10;99.90;;;;;;4926172;28;20079;-82
2021/04/02 01:23:18;;;;;;;20.30;7.28;;;0.00;99.90;;;;;;4927506;28;20466;-81
2021/04/02 01:25:51;;;;;;;22.33;7.20;;;0.00;99.90;;;;;;4926966;28;20494;-82
2021/04/02 01:28:42;;;;;;;20.42;6.97;;;0.00;99.90;;;;;;4927267;28;20657;-82
2021/04/02 01:31:06;;;;;;;25.30;7.13;;;0.10;99.90;;;;;;4924181;28;20096;-80
2021/04/02 01:33:31;;;;;;;24.35;7.57;;;0.00;99.90;;;;;;4929367;28;20090;-81
2021/04/02 01:35:56;;;;;;;19.15;7.35;;;-0.10;99.90;;;;;;4921069;28;20083;-81
2021/04/02 01:38:23;;;;;;;15.07;6.05;;;-0.20;99.90;;;;;;4937219;28;20170;-81
2021/04/02 01:40:51;;;;;;;20.00;6.40;;;-0.20;99.90;;;;;;4938736;28;20087;-83
2021/04/02 01:43:18;;;;;;;15.88;6.28;;;-0.30;99.90;;;;;;4932860;28;20107;-81
2021/04/02 01:45:43;;;;;;;15.02;5.53;;;-0.30;99.90;;;;;;4927766;28;20099;-83
2021/04/02 01:48:08;;;;;;;31.70;4.85;;;-0.50;99.90;;;;;;4914413;28;20470;-82
2021/04/02 01:50:31;;;;;;;231.77;8.68;;;-0.80;99.90;;;;;;4927004;28;20114;-81
2021/04/02 01:52:56;;;;;;;35.75;4.18;;;-1.10;99.90;;;;;;4927994;28;20558;-82
2021/04/02 01:55:19;;;;;;;42.20;4.93;;;-1.30;99.90;;;;;;4925858;28;20166;-81
2021/04/02 01:57:45;;;;;;;14.50;4.28;;;-1.30;99.90;;;;;;4926659;28;20501;-81
2021/04/02 02:00:11;;;;;;;13.57;2.95;;;-1.20;99.90;;;;;;4926119;28;20481;-82
2021/04/02 02:02:34;;;;;;;20.15;3.78;;;-1.10;99.90;;;;;;4926922;28;20123;-82
2021/04/02 02:04:59;;;;;;;13.27;4.00;;;-1.00;99.90;;;;;;4919889;28;20115;-83
2021/04/02 02:07:23;;;;;;;17.30;4.28;;;-1.00;99.90;;;;;;4927122;28;20105;-81
2021/04/02 02:09:48;;;;;;;7.82;3.92;;;-1.00;99.90;;;;;;4926889;28;20173;-80
2021/04/02 02:12:14;;;;;;;10.40;4.40;;;-1.00;99.90;;;;;;4926187;28;20093;-82
2021/04/02 02:14:39;;;;;;;8.38;3.45;;;-1.10;99.90;;;;;;4923001;28;20104;-80
2021/04/02 02:17:05;;;;;;;6.45;3.53;;;-1.20;99.90;;;;;;4926739;28;20090;-83
2021/04/02 02:19:31;;;;;;;12.13;3.75;;;-1.30;99.90;;;;;;4926260;28;20098;-81
2021/04/02 02:21:57;;;;;;;14.35;4.20;;;-1.30;99.90;;;;;;4926444;28;20089;-81
2021/04/02 02:24:19;;;;;;;9.93;4.47;;;-1.40;99.90;;;;;;4924755;28;20474;-85
2021/04/02 02:26:43;;;;;;;10.00;4.28;;;-1.40;99.90;;;;;;4926417;28;20091;-80
2021/04/02 02:29:06;;;;;;;14.35;4.05;;;-1.40;99.90;;;;;;4926166;28;20090;-80
2021/04/02 02:31:29;;;;;;;18.27;3.47;;;-1.40;99.90;;;;;;4926974;28;20484;-82
2021/04/02 02:33:52;;;;;;;8.32;4.07;;;-1.40;99.90;;;;;;4926139;28;20093;-82
2021/04/02 02:36:15;;;;;;;22.52;4.00;;;-1.30;99.90;;;;;;4907626;28;21680;-85
2021/04/02 02:38:42;;;;;;;17.05;4.30;;;-1.30;99.90;;;;;;4926867;28;20128;-81
2021/04/02 02:41:05;;;;;;;13.38;4.15;;;-1.20;99.90;;;;;;4912702;28;20085;-84
2021/04/02 02:43:28;;;;;;;22.58;5.00;;;-1.20;99.90;;;;;;4923303;28;20096;-81
2021/04/02 02:45:50;;;;;;;15.88;4.35;;;-1.20;99.90;;;;;;4931427;28;20191;-79
2021/04/02 02:48:13;;;;;;;8.32;4.30;;;-1.00;99.90;;;;;;4939931;28;20098;-84
2021/04/02 02:50:40;;;;;;;12.25;3.97;;;-1.00;99.90;;;;;;4932548;28;20095;-83
2021/04/02 02:53:05;;;;;;;16.80;4.00;;;-0.80;99.90;;;;;;4924347;28;20107;-82
2021/04/02 02:55:31;;;;;;;12.82;4.63;;;-0.80;99.90;;;;;;4925233;28;20091;-82
2021/04/02 02:57:56;;;;;;;9.65;4.18;;;-0.70;99.90;;;;;;4924555;28;20089;-80
2021/04/02 03:00:24;;;;;;;12.60;3.95;;;-0.70;99.90;;;;;;4926499;28;20134;-81
2021/04/02 03:02:49;;;;;;;10.50;4.30;;;-0.60;99.90;;;;;;4925203;28;20084;-84
2021/04/02 03:05:15;;;;;;;17.75;4.18;;;-0.60;99.90;;;;;;4923964;28;20089;-81
2021/04/02 03:07:39;;;;;;;23.50;3.95;;;-0.70;99.90;;;;;;4925716;28;20520;-81
2021/04/02 03:10:03;;;;;;;18.13;4.82;;;-0.60;99.90;;;;;;4927088;28;20096;-81
2021/04/02 03:12:29;;;;;;;10.95;3.42;;;-0.60;99.90;;;;;;4924892;28;20118;-81
2021/04/02 03:14:52;;;;;;;7.22;3.88;;;-0.70;99.90;;;;;;4917869;28;20147;-80
2021/04/02 03:17:15;;;;;;;7.18;3.88;;;-0.60;99.90;;;;;;4927045;28;20167;-81
2021/04/02 03:19:40;;;;;;;9.27;4.43;;;-0.70;99.90;;;;;;4925320;28;20152;-82
2021/04/02 03:22:05;;;;;;;15.57;4.63;;;-0.70;99.90;;;;;;4928258;28;20085;-84
2021/04/02 03:24:30;;;;;;;9.05;4.63;;;-0.70;99.90;;;;;;4925572;28;20084;-81
2021/04/02 03:26:55;;;;;;;8.65;4.25;;;-0.80;99.90;;;;;;4925095;28;20149;-87
2021/04/02 03:29:20;;;;;;;8.32;4.40;;;-0.80;99.90;;;;;;4926695;28;20485;-81
2021/04/02 03:31:45;;;;;;;8.45;4.32;;;-0.80;99.90;;;;;;4923897;28;20083;-81
2021/04/02 03:34:11;;;;;;;14.68;4.20;;;-0.80;99.90;;;;;;4924216;28;20097;-83
2021/04/02 03:36:36;;;;;;;8.90;4.38;;;-0.70;99.90;;;;;;4924604;28;20112;-81
2021/04/02 03:38:59;;;;;;;7.00;3.70;;;-0.70;99.90;;;;;;4925407;28;20109;-81
2021/04/02 03:41:25;;;;;;;17.08;4.97;;;-0.70;99.90;;;;;;4926509;28;20139;-81
2021/04/02 03:43:49;;;;;;;9.43;4.13;;;-0.60;99.90;;;;;;4924636;28;20446;-81
2021/04/02 03:46:14;;;;;;;23.23;4.65;;;-0.50;99.90;;;;;;4915013;28;20171;-79
2021/04/02 03:48:39;;;;;;;9.90;3.92;;;-0.50;99.90;;;;;;4925910;28;20495;-84
2021/04/02 03:51:02;;;;;;;;;;;-0.40;99.90;;;;;;4925040;28;20091;-81
2021/04/02 03:53:29;;;;;;;10.32;4.82;;;-0.40;99.90;;;;;;4908190;28;19977;-80
2021/04/02 03:55:54;;;;;;;15.15;4.40;;;-0.40;99.90;;;;;;4925637;28;20083;-81
2021/04/02 03:58:19;;;;;;;8.48;4.38;;;-0.40;99.90;;;;;;4923727;28;20439;-82
2021/04/02 04:00:48;;;;;;;13.00;5.20;;;-0.40;99.90;;;;;;4926038;28;20088;-82
2021/04/02 04:03:12;;;;;;;12.70;5.32;;;-0.30;99.90;;;;;;4925128;28;20593;-81
2021/04/02 04:05:36;;;;;;;21.25;5.40;;;-0.30;99.90;;;;;;4924046;28;20452;-80
2021/04/02 04:08:01;;;;;;;8.65;4.97;;;-0.20;99.90;;;;;;4923526;28;20145;-82
2021/04/02 04:10:26;;;;;;;19.80;5.28;;;-0.30;99.90;;;;;;4925715;28;20090;-79
2021/04/02 04:12:53;;;;;;;25.25;5.63;;;-0.40;99.90;;;;;;4924789;28;20096;-82
2021/04/02 04:15:18;;;;;;;9.57;5.18;;;-0.40;99.90;;;;;;4923159;28;20098;-80
2021/04/02 04:17:43;;;;;;;26.35;4.82;;;-0.30;99.90;;;;;;4906795;28;20108;-81
2021/04/02 04:20:09;;;;;;;26.17;6.00;;;-0.20;99.90;;;;;;4924312;28;20084;-81
2021/04/02 04:22:34;;;;;;;31.08;6.10;;;-0.10;99.90;;;;;;4923388;28;20116;-80
2021/04/02 04:24:58;;;;;;;18.70;6.10;;;-0.10;99.90;;;;;;4924323;28;20080;-81
2021/04/02 04:27:23;;;;;;;28.20;5.75;;;-0.10;99.90;;;;;;4923929;28;20095;-81
2021/04/02 04:29:50;;;;;;;23.92;6.18;;;0.00;99.90;;;;;;4924534;28;20101;-81
2021/04/02 04:32:20;;;;;;;18.85;6.55;;;0.10;99.90;;;;;;4926020;28;20091;-81
2021/04/02 04:34:45;;;;;;;30.17;7.10;;;0.10;99.90;;;;;;4924062;28;20618;-80
2021/04/02 04:37:08;;;;;;;23.30;7.35;;;0.00;99.90;;;;;;4923932;28;20080;-81
2021/04/02 04:39:32;;;;;;;24.42;6.93;;;0.10;99.90;;;;;;4924563;28;20438;-81
2021/04/02 04:41:57;;;;;;;29.58;7.32;;;0.10;99.90;;;;;;4923837;28;20087;-81
2021/04/02 04:44:21;;;;;;;31.65;7.70;;;0.00;99.90;;;;;;4922493;28;20097;-82
2021/04/02 04:46:44;;;;;;;24.90;7.65;;;0.20;99.90;;;;;;4924021;28;20090;-80
2021/04/02 04:49:06;;;;;;;22.67;7.93;;;0.20;99.90;;;;;;4925949;28;20099;-82
2021/04/02 04:51:33;;;;;;;24.50;7.82;;;0.20;99.90;;;;;;4925543;28;20468;-83
2021/04/02 04:54:00;;;;;;;26.83;8.23;;;0.30;99.90;;;;;;4922444;28;20095;-80
2021/04/02 04:56:27;;;;;;;34.60;8.20;;;0.30;99.90;;;;;;4923534;28;20120;-81
2021/04/02 04:58:53;;;;;;;46.95;10.00;;;0.40;99.90;;;;;;4922534;28;20110;-82
2021/04/02 05:01:17;;;;;;;55.63;9.57;;;0.40;99.90;;;;;;4923147;28;20084;-81
2021/04/02 05:03:41;;;;;;;52.92;9.30;;;0.50;99.90;;;;;;4924379;28;20187;-82
2021/04/02 05:06:06;;;;;;;43.72;9.88;;;0.50;99.90;;;;;;4924034;28;20086;-81
2021/04/02 05:08:36;;;;;;;38.05;9.20;;;0.50;99.90;;;;;;4924198;28;20422;-81
2021/04/02 05:11:01;;;;;;;63.90;9.15;;;0.60;99.90;;;;;;4924638;28;20182;-81
2021/04/02 05:13:27;;;;;;;80.07;11.35;;;0.60;99.90;;;;;;4925294;28;20162;-83
2021/04/02 05:15:52;;;;;;;49.75;10.38;;;0.60;99.90;;;;;;4923668;28;20087;-80
2021/04/02 05:18:16;;;;;;;;;;;0.60;99.90;;;;;;4924184;28;20106;-80
2021/04/02 05:20:41;;;;;;;53.92;8.98;;;0.60;99.90;;;;;;4924338;28;19986;-81
2021/04/02 05:23:04;;;;;;;59.70;10.00;;;0.70;99.90;;;;;;4922914;28;20099;-79
2021/04/02 05:25:27;;;;;;;57.38;10.00;;;0.70;99.90;;;;;;4924857;28;20106;-79
2021/04/02 05:27:56;;;;;;;53.65;8.90;;;;;;;;;;4926137;28;20546;-79
2021/04/02 05:30:20;;;;;;;66.95;9.18;;;0.70;99.90;;;;;;4924201;28;20096;-81
2021/04/02 05:32:42;;;;;;;57.58;9.10;;;0.80;99.90;;;;;;4923198;28;20091;-83
2021/04/02 05:35:05;;;;;;;71.50;9.52;;;;;;;;;;4922264;28;20095;-79
2021/04/02 05:37:28;;;;;;;66.22;9.40;;;0.90;99.90;;;;;;4925327;28;20128;-83
2021/04/02 05:39:51;;;;;;;108.35;11.00;;;1.00;99.90;;;;;;4922572;28;20098;-83
2021/04/02 05:42:16;;;;;;;51.25;10.43;;;1.00;99.90;;;;;;4915915;28;20549;-85
2021/04/02 05:44:40;;;;;;;64.80;11.77;;;1.10;99.90;;;;;;4922892;28;20094;-79
2021/04/02 05:47:09;;;;;;;75.05;12.48;;;1.20;99.90;;;;;;4927641;28;20727;-82
2021/04/02 05:49:32;;;;;;;48.47;10.75;;;1.30;99.90;;;;;;4930114;28;20117;-84
2021/04/02 05:51:57;;;;;;;112.85;13.55;;;1.40;99.90;;;;;;4929491;28;20086;-80
2021/04/02 05:54:27;;;;;;;65.30;13.10;;;1.40;99.90;;;;;;4929855;28;20090;-83
2021/04/02 05:56:52;;;;;;;94.57;13.90;;;1.50;99.90;;;;;;4916553;28;20491;-81
2021/04/02 05:59:22;;;;;;;98.80;13.93;;;1.50;99.90;;;;;;4927541;28;20090;-82
2021/04/02 06:01:45;;;;;;;81.70;13.55;;;1.50;99.90;;;;;;4927684;28;20094;-80
2021/04/02 06:04:08;;;;;;;81.18;12.73;;;1.50;99.90;;;;;;4925144;28;20111;-83
2021/04/02 06:06:31;;;;;;;101.03;13.43;;;;;;;;;;4926541;28;20418;-79
2021/04/02 06:08:55;;;;;;;57.72;12.27;;;1.70;99.90;;;;;;4923748;28;20165;-82
2021/04/02 06:11:18;;;;;;;56.75;13.15;;;1.80;99.90;;;;;;4928411;28;20090;-82
2021/04/02 06:13:46;;;;;;;51.25;11.55;;;1.80;99.90;;;;;;4917472;28;20504;-83
2021/04/02 06:16:09;;;;;;;44.53;11.63;;;1.80;99.90;;;;;;4925236;28;20086;-81
2021/04/02 06:18:37;;;;;;;57.70;13.75;;;1.80;99.90;;;;;;4927832;28;20090;-83
2021/04/02 06:21:00;;;;;;;52.50;14.23;;;1.90;99.90;;;;;;4914984;28;20143;-83
2021/04/02 06:23:24;;;;;;;60.75;13.82;;;2.00;99.90;;;;;;4926538;28;21208;-80
2021/04/02 06:25:49;;;;;;;51.88;14.57;;;2.30;99.90;;;;;;4918084;28;20090;-82
2021/04/02 06:28:14;;;;;;;52.72;13.93;;;2.30;99.90;;;;;;4926947;28;20083;-82
2021/04/02 06:30:41;;;;;;;61.47;14.60;;;2.50;99.90;;;;;;4927652;28;20082;-87
2021/04/02 06:33:06;;;;;;;54.00;14.05;;;2.60;99.90;;;;;;4925279;28;20495;-84
2021/04/02 06:35:29;;;;;;;38.10;10.32;;;2.60;99.90;;;;;;4926759;28;20082;-81
2021/04/02 06:37:55;;;;;;;47.95;13.95;;;2.80;99.90;;;;;;4928603;28;22159;-82
2021/04/02 06:40:19;;;;;;;57.50;13.93;;;2.90;99.90;;;;;;4927225;28;20089;-82
2021/04/02 06:42:44;;;;;;;34.08;13.15;;;2.90;99.90;;;;;;4925380;28;20573;-84
2021/04/02 06:45:08;;;;;;;39.92;14.15;;;2.80;99.90;;;;;;4925949;28;20166;-82
2021/04/02 06:47:34;;;;;;;45.65;14.18;;;3.20;99.90;;;;;;4916986;28;20090;-83
2021/04/02 06:49:57;;;;;;;42.03;13.77;;;3.40;99.90;;;;;;4925175;28;20095;-84
2021/04/02 06:52:20;;;;;;;43.33;14.65;;;3.70;99.90;;;;;;4925802;28;20082;-81
2021/04/02 06:54:43;;;;;;;38.92;13.32;;;4.00;99.90;;;;;;4927253;28;20078;-83
2021/04/02 06:57:08;;;;;;;41.45;15.65;;;5.70;99.90;;;;;;4918003;28;20104;-84
2021/04/02 06:59:33;;;;;;;42.33;15.65;;;4.80;99.90;;;;;;4925708;28;20079;-84
2021/04/02 07:01:57;;;;;;;39.33;15.77;;;6.00;99.90;;;;;;4925588;28;20083;-82
2021/04/02 07:04:23;;;;;;;36.67;14.48;;;7.20;99.90;;;;;;4925856;28;20154;-82
2021/04/02 07:06:46;;;;;;;15.77;8.30;;;7.90;99.90;;;;;;4925861;28;20143;-85
2021/04/02 07:09:15;;;;;;;12.63;6.93;;;8.50;99.90;;;;;;4915787;28;20095;-81
2021/04/02 07:11:41;;;;;;;10.05;5.50;;;9.50;99.90;;;;;;4919489;28;20091;-83
2021/04/02 07:14:07;;;;;;;9.77;5.50;;;;;;;;;;4920933;28;20079;-84
2021/04/02 07:16:30;;;;;;;8.32;4.65;;;10.90;99.90;;;;;;4926284;28;20607;-84
2021/04/02 07:18:58;;;;;;;8.77;4.63;;;11.60;99.90;;;;;;4923666;28;20509;-83
2021/04/02 07:21:23;;;;;;;7.28;4.60;;;12.30;99.90;;;;;;4927014;28;20044;-84
2021/04/02 07:23:55;;;;;;;6.53;4.00;;;13.00;99.90;;;;;;4928307;28;20048;-83
2021/04/02 07:26:20;;;;;;;5.82;3.80;;;13.10;99.90;;;;;;4924586;28;20404;-85
2021/04/02 07:28:50;;;;;;;5.38;3.70;;;13.00;99.90;;;;;;4926918;28;20044;-82
2021/04/02 07:31:16;;;;;;;6.75;4.05;;;13.20;99.90;;;;;;4928696;28;20059;-84
2021/04/02 07:33:56;;;;;;;6.90;3.72;;;13.60;99.90;;;;;;4928457;28;20048;-86
2021/04/02 07:36:19;;;;;;;4.80;3.30;;;14.30;99.90;;;;;;4918690;28;20045;-82
2021/04/02 07:38:53;;;;;;;4.07;3.00;;;14.10;99.90;;;;;;4909200;28;20063;-82
2021/04/02 07:41:24;;;;;;;5.03;3.00;;;;;;;;;;4921714;28;20044;-81
2021/04/02 07:43:50;;;;;;;4.57;2.60;;;13.20;99.90;;;;;;4913332;28;20037;-85
2021/04/02 07:46:18;;;;;;;4.53;2.78;;;12.10;99.90;;;;;;4935358;28;20522;-85
2021/04/02 07:48:49;;;;;;;3.50;2.30;;;12.10;99.90;;;;;;4934547;28;20376;-84
2021/04/02 07:51:14;;;;;;;4.78;2.20;;;12.80;99.90;;;;;;4928152;28;20056;-83
2021/04/02 07:53:46;;;;;;;3.53;2.53;;;12.60;99.90;;;;;;4929196;28;20371;-82
2021/04/02 07:56:11;;;;;;;5.38;2.65;;;8.50;99.90;;;;;;4917715;28;20090;-82
2021/04/02 07:58:47;;;;;;;3.83;2.80;;;6.50;99.90;;;;;;4926417;28;20528;-82
2021/04/02 08:01:10;;;;;;;4.95;2.85;;;6.40;99.90;;;;;;4918898;28;20416;-82
2021/04/02 08:03:33;;;;;;;5.10;2.65;;;6.20;99.90;;;;;;4928776;28;20088;-82
2021/04/02 08:06:04;;;;;;;4.55;2.50;;;6.10;99.90;;;;;;4928060;28;20473;-82
2021/04/02 08:08:39;;;;;;;6.10;3.42;;;7.00;99.90;;;;;;4921389;28;20084;-81
2021/04/02 08:11:06;;;;;;;4.70;2.70;;;8.40;99.90;;;;;;4924986;28;20525;-87
2021/04/02 08:13:29;;;;;;;4.55;2.92;;;9.20;99.90;;;;;;4920717;28;20486;-83
2021/04/02 08:16:24;;;;;;;5.25;2.40;;;9.90;99.90;;;;;;4916295;28;20488;-83
2021/04/02 08:19:04;;;;;;;4.25;2.40;;;7.80;99.90;;;;;;4919366;28;20084;-81
2021/04/02 08:21:43;;;;;;;4.03;2.67;;;6.70;99.90;;;;;;4926072;28;20418;-82
2021/04/02 08:24:12;;;;;;;4.97;2.90;;;6.80;99.90;;;;;;4926538;28;20084;-81
2021/04/02 08:26:43;;;;;;;3.08;2.28;;;6.40;99.90;;;;;;4926759;28;20084;-82
2021/04/02 08:29:15;;;;;;;6.25;2.75;;;5.60;99.90;;;;;;4918272;28;20085;-82
2021/04/02 08:31:41;;;;;;;3.95;2.50;;;5.40;99.90;;;;;;4926399;28;20449;-82
2021/04/02 08:34:05;;;;;;;5.18;2.90;;;5.40;99.90;;;;;;4927532;28;20414;-82
2021/04/02 08:36:30;;;;;;;7.10;2.38;;;5.50;99.90;;;;;;4919102;28;20089;-82
2021/04/02 08:38:59;;;;;;;6.28;2.92;;;4.90;99.90;;;;;;4909918;28;20090;-81
2021/04/02 08:41:36;;;;;;;5.38;2.85;;;4.90;99.90;;;;;;4927734;28;20094;-82
2021/04/02 08:44:01;;;;;;;5.53;2.67;;;4.60;99.90;;;;;;4928421;28;20098;-82
2021/04/02 08:46:43;;;;;;;6.83;3.53;;;4.70;99.90;;;;;;4920929;28;20121;-82
2021/04/02 08:49:08;;;;;;;6.25;3.60;;;4.90;99.90;;;;;;4922284;28;20488;-84
2021/04/02 08:51:35;;;;;;;6.10;3.55;;;5.00;99.90;;;;;;4928701;28;20457;-83
2021/04/02 08:54:03;;;;;;;8.73;3.35;;;5.10;99.90;;;;;;4927762;28;20109;-83
2021/04/02 08:56:29;;;;;;;6.40;3.03;;;5.20;99.90;;;;;;4916850;28;20090;-81
2021/04/02 08:58:52;;;;;;;5.72;2.80;;;5.30;99.90;;;;;;4928273;28;20094;-82
2021/04/02 09:01:49;;;;;;;7.38;3.33;;;5.20;99.90;;;;;;4898439;28;20449;-83
2021/04/02 09:04:39;;;;;;;5.22;3.25;;;5.30;99.90;;;;;;4879848;28;20189;-84
2021/04/02 09:07:19;;;;;;;6.25;3.08;;;5.20;99.90;;;;;;4874613;28;20094;-80
2021/04/02 09:10:14;;;;;;;6.35;3.17;;;5.30;99.90;;;;;;4863127;28;20097;-81
2021/04/02 09:13:10;;;;;;;6.25;3.00;;;5.60;99.90;;;;;;4865990;28;20090;-81
2021/04/02 09:16:10;;;;;;;7.22;3.47;;;5.80;99.90;;;;;;4852002;28;20094;-84
2021/04/02 09:18:57;;;;;;;5.63;3.38;;;5.70;99.90;;;;;;4878450;28;20086;-82
2021/04/02 09:21:28;;;;;;;4.93;2.42;;;5.60;99.90;;;;;;4887922;27;20086;-82
2021/04/02 09:24:01;;;;;;;5.43;3.25;;;5.60;99.90;;;;;;4873940;28;20090;-81
2021/04/02 09:27:05;;;;;;;5.32;3.20;;;5.60;99.90;;;;;;4890616;28;20086;-84
2021/04/02 09:29:34;;;;;;;7.07;3.72;;;5.70;99.90;;;;;;4866293;28;20089;-81
2021/04/02 09:32:38;;;;;;;7.47;3.70;;;5.90;99.90;;;;;;4892542;28;20090;-80
2021/04/02 09:35:33;;;;;;;6.22;3.45;;;5.90;99.90;;;;;;4877988;28;20483;-83
2021/04/02 09:38:33;;;;;;;4.85;3.03;;;5.90;99.90;;;;;;4875179;28;20553;-83
2021/04/02 09:41:31;;;;;;;7.00;4.07;;;5.60;99.90;;;;;;4865327;28;20088;-81
2021/04/02 09:44:14;;;;;;;7.60;4.07;;;5.50;99.90;;;;;;4877071;28;20101;-82
2021/04/02 09:53:26;;;;;;;9.20;4.35;;;6.00;99.90;;;;;;4843003;28;20083;-84
2021/04/02 09:55:54;;;;;;;7.28;4.47;;;6.20;99.90;;;;;;4876239;27;20109;-81
2021/04/02 09:58:44;;;;;;;10.02;4.45;;;6.20;99.90;;;;;;4859869;28;21608;-81
2021/04/02 10:01:33;;;;;;;9.07;4.60;;;5.70;99.90;;;;;;4864228;28;20144;-83
2021/04/02 10:04:41;;;;;;;13.40;6.10;;;5.80;99.90;;;;;;4872861;28;20417;-85
2021/04/02 10:13:51;;;;;;;10.32;4.88;;;6.30;99.90;;;;;;4868806;27;20128;-83
2021/04/02 10:16:25;;;;;;;16.00;5.78;;;6.10;99.90;;;;;;4868082;28;20274;-84
2021/04/02 10:19:10;;;;;;;9.48;5.03;;;5.90;99.90;;;;;;4866213;28;20086;-85
2021/04/02 10:21:35;;;;;;;19.58;5.28;;;5.90;99.90;;;;;;4878861;28;20101;-83
2021/04/02 10:24:14;;;;;;;11.65;5.72;;;5.80;99.90;;;;;;4886318;27;20528;-83
2021/04/02 10:26:38;;;;;;;11.20;5.25;;;5.60;99.90;;;;;;4882564;28;20480;-84
2021/04/02 10:29:51;;;;;;;11.15;5.40;;;5.40;99.90;;;;;;4864960;28;20479;-83
2021/04/02 10:32:20;;;;;;;13.82;4.97;;;5.40;99.90;;;;;;4862772;28;20143;-82
2021/04/02 10:38:41;;;;;;;13.02;3.88;;;5.30;99.90;;;;;;4840642;28;20086;-81
2021/04/02 10:41:41;;;;;;;7.10;2.70;;;5.40;99.90;;;;;;4866039;28;20148;-83
2021/04/02 10:44:23;;;;;;;13.05;2.95;;;5.40;99.90;;;;;;4873059;28;20506;-81
2021/04/02 10:46:57;;;;;;;12.35;2.65;;;5.30;99.90;;;;;;4870353;28;20124;-83
2021/04/02 10:49:51;;;;;;;9.10;2.22;;;5.10;99.90;;;;;;4873821;28;20091;-84
2021/04/02 10:52:42;;;;;;;10.68;2.70;;;5.10;99.90;;;;;;4869980;28;20086;-86
2021/04/02 10:55:06;;;;;;;12.80;2.20;;;5.20;99.90;;;;;;4899558;28;20606;-83
2021/04/02 10:57:37;;;;;;;12.40;2.67;;;5.00;99.90;;;;;;4923964;28;20086;-83
2021/04/02 11:00:00;;;;;;;10.82;2.53;;;5.00;99.90;;;;;;4919263;28;20086;-82
2021/04/02 11:02:23;;;;;;;7.30;2.47;;;5.10;99.90;;;;;;4927580;28;20090;-82
2021/04/02 11:04:47;;;;;;;11.02;2.55;;;5.30;99.90;;;;;;4925088;28;20086;-83
2021/04/02 11:07:10;;;;;;;10.52;2.47;;;5.50;99.90;;;;;;4927326;28;20533;-86
2021/04/02 11:09:32;;;;;;;9.10;2.42;;;5.70;99.90;;;;;;4922004;28;20078;-85
2021/04/02 11:11:55;;;;;;;9.48;2.88;;;5.70;99.90;;;;;;4924789;28;20081;-84
2021/04/02 11:14:18;;;;;;;10.50;2.75;;;5.60;99.90;;;;;;4916831;28;21651;-84
2021/04/02 11:16:41;;;;;;;8.27;2.28;;;5.60;99.90;;;;;;4925611;28;20086;-82
2021/04/02 11:19:04;;;;;;;13.80;2.70;;;5.70;99.90;;;;;;4925036;28;20086;-83
2021/04/02 11:21:26;;;;;;;16.30;2.88;;;5.80;99.90;;;;;;4926180;28;20082;-83
2021/04/02 11:23:49;;;;;;;7.82;2.20;;;5.90;99.90;;;;;;4926246;28;20129;-81
2021/04/02 11:26:12;;;;;;;13.15;2.40;;;5.90;99.90;;;;;;4926581;28;20089;-85
2021/04/02 11:28:35;;;;;;;16.15;2.55;;;5.90;99.90;;;;;;4925497;28;20155;-85
2021/04/02 11:30:57;;;;;;;6.43;2.35;;;5.90;99.90;;;;;;4926253;28;20083;-84
2021/04/02 11:33:20;;;;;;;10.07;2.72;;;5.90;99.90;;;;;;4926590;28;20098;-85
2021/04/02 11:35:46;;;;;;;9.23;2.28;;;5.90;99.90;;;;;;4926102;28;20089;-83
2021/04/02 11:38:08;;;;;;;9.57;2.72;;;5.80;99.90;;;;;;4923932;28;20090;-82
2021/04/02 11:40:32;;;;;;;13.13;2.38;;;6.30;99.90;;;;;;4922744;28;20112;-85
2021/04/02 11:42:54;;;;;;;7.63;1.88;;;6.40;99.90;;;;;;4916179;28;20145;-81
2021/04/02 11:45:18;;;;;;;12.23;2.42;;;6.60;99.90;;;;;;4927712;28;20087;-87
2021/04/02 11:47:40;;;;;;;20.88;3.35;;;6.80;99.90;;;;;;4915324;28;20078;-84
2021/04/02 11:50:05;;;;;;;16.35;2.50;;;6.80;99.90;;;;;;4924413;28;21165;-87
2021/04/02 11:52:28;;;;;;;8.38;2.20;;;6.80;99.90;;;;;;4924182;28;20089;-84
2021/04/02 11:54:50;;;;;;;13.90;2.42;;;6.80;99.90;;;;;;4917353;28;20086;-84
2021/04/02 11:57:16;;;;;;;9.32;2.38;;;6.80;99.90;;;;;;4926829;28;20100;-87
2021/04/02 11:59:38;;;;;;;;;;;6.80;99.90;;;;;;4926048;28;20085;-84
2021/04/02 12:02:01;;;;;;;14.32;3.20;;;7.10;99.90;;;;;;4924451;28;20355;-83
2021/04/02 12:04:24;;;;;;;13.93;2.95;;;7.10;99.90;;;;;;4923431;28;20103;-85
2021/04/02 12:06:48;;;;;;;9.57;1.95;;;7.10;99.90;;;;;;4925257;28;20078;-80
2021/04/02 12:09:13;;;;;;;9.38;2.40;;;7.10;99.90;;;;;;4925728;28;20096;-85
2021/04/02 12:11:36;;;;;;;11.48;2.70;;;7.30;99.90;;;;;;4924141;28;20081;-84
2021/04/02 12:13:59;;;;;;;8.20;2.60;;;7.50;99.90;;;;;;4923146;28;20084;-84
2021/04/02 12:16:21;;;;;;;9.88;2.30;;;7.80;99.90;;;;;;4924909;28;20558;-86
2021/04/02 12:18:44;;;;;;;9.70;2.42;;;7.80;99.90;;;;;;4916640;28;20093;-86
2021/04/02 12:21:06;;;;;;;10.73;2.75;;;7.70;99.90;;;;;;4914238;28;20096;-85
2021/04/02 12:23:35;;;;;;;14.65;2.55;;;7.80;99.90;;;;;;4925728;28;20084;-86
2021/04/02 12:25:58;;;;;;;11.07;3.15;;;7.90;99.90;;;;;;4923158;28;20095;-86
2021/04/02 12:28:21;;;;;;;9.38;2.83;;;8.00;99.90;;;;;;4922253;28;20520;-86
2021/04/02 12:30:44;;;;;;;11.23;2.88;;;8.00;99.90;;;;;;4915692;28;20081;-86
2021/04/02 12:33:07;;;;;;;13.57;3.20;;;8.30;99.90;;;;;;4924808;28;20507;-84
2021/04/02 12:35:29;;;;;;;11.15;2.47;;;8.50;99.90;;;;;;4923580;28;20201;-85
2021/04/02 12:37:52;;;;;;;12.80;2.42;;;8.60;99.90;;;;;;4924069;28;20113;-86
2021/04/02 12:40:17;;;;;;;10.52;2.70;;;8.70;99.90;;;;;;4922224;28;20110;-83
2021/04/02 12:42:40;;;;;;;;;;;8.60;99.90;;;;;;4923194;28;20094;-86
2021/04/02 12:45:03;;;;;;;15.38;3.17;;;8.40;99.90;;;;;;4922736;28;19956;-84
2021/04/02 12:47:26;;;;;;;12.38;2.60;;;8.20;99.90;;;;;;4923722;28;20084;-83
2021/04/02 12:49:48;;;;;;;23.92;3.00;;;8.10;99.90;;;;;;4923892;28;20443;-86
2021/04/02 12:52:11;;;;;;;12.75;3.17;;;8.20;99.90;;;;;;4921458;28;20089;-84
2021/04/02 12:54:34;;;;;;;16.20;3.25;;;8.30;99.90;;;;;;4917577;28;20103;-85
2021/04/02 12:56:57;;;;;;;13.95;2.60;;;8.40;99.90;;;;;;4915965;28;20089;-89
2021/04/02 12:59:20;;;;;;;10.85;2.63;;;8.50;99.90;;;;;;4927620;28;20083;-84
2021/04/02 13:01:42;;;;;;;12.63;3.20;;;8.90;99.90;;;;;;4926899;28;20091;-84
2021/04/02 13:04:05;;;;;;;13.65;3.03;;;8.90;99.90;;;;;;4928181;28;20071;-87
2021/04/02 13:06:28;;;;;;;24.52;3.08;;;8.70;99.90;;;;;;4918022;28;20484;-86